createdAt,value
2022-08-07T00:02:53.586Z,55.14
2022-08-07T00:08:00.089Z,57.36
2022-08-07T00:13:24.054Z,57.12
2022-08-07T00:18:30.636Z,57.65
2022-08-07T00:23:37.272Z,57.29
2022-08-07T00:28:46.215Z,57.92
2022-08-07T00:34:00.948Z,58.27
2022-08-07T00:39:05.171Z,57.79
2022-08-07T00:44:10.692Z,57.84
2022-08-07T00:50:16.717Z,58.12
2022-08-07T00:54:43.848Z,58.92
2022-08-07T00:59:49.967Z,58.99
2022-08-07T01:04:58.263Z,58.93
2022-08-07T01:10:04.991Z,58.84
2022-08-07T01:15:18.988Z,58.98
2022-08-07T01:20:34.203Z,60.51
2022-08-07T01:25:55.099Z,60.07
2022-08-07T01:31:02.890Z,61.04
2022-08-07T01:36:12.207Z,60.21
2022-08-07T01:41:26.349Z,61.25
2022-08-07T01:46:36.605Z,60.77
2022-08-07T01:52:04.127Z,60.91
2022-08-07T01:57:24.423Z,61.31
2022-08-07T02:03:19.320Z,61.43
2022-08-07T02:08:02.179Z,61.60
2022-08-07T02:13:15.023Z,61.42
2022-08-07T02:18:29.981Z,61.46
2022-08-07T02:23:36.385Z,62.12
2022-08-07T02:28:43.944Z,61.79
2022-08-07T02:34:03.583Z,61.65
2022-08-07T02:39:17.517Z,61.91
2022-08-07T02:44:47.768Z,61.72
2022-08-07T02:49:58.572Z,61.99
2022-08-07T02:55:27.396Z,62.55
2022-08-07T03:00:39.115Z,62.04
2022-08-07T03:05:46.357Z,62.42
2022-08-07T03:10:53.184Z,62.13
2022-08-07T03:16:07.724Z,62.21
2022-08-07T03:21:12.711Z,63.08
2022-08-07T03:26:26.313Z,63.02
2022-08-07T03:31:42.911Z,63.97
2022-08-07T03:36:49.864Z,63.57
2022-08-07T03:41:54.183Z,63.67
2022-08-07T03:47:12.987Z,63.55
2022-08-07T03:52:22.773Z,62.47
2022-08-07T03:58:32.637Z,62.86
2022-08-07T04:03:03.794Z,63.41
2022-08-07T04:08:18.484Z,63.14
2022-08-07T04:13:27.703Z,63.22
2022-08-07T04:18:59.393Z,62.98
2022-08-07T04:24:07.002Z,63.43
2022-08-07T04:29:15.302Z,63.45
2022-08-07T04:34:24.318Z,64.73
2022-08-07T04:39:38.664Z,64.66
2022-08-07T04:44:54.453Z,64.41
2022-08-07T04:50:15.372Z,64.72
2022-08-07T04:58:10.233Z,65.42
2022-08-07T05:01:18.205Z,66.18
2022-08-07T05:06:43.507Z,65.52
2022-08-07T05:11:57.243Z,64.66
2022-08-07T05:17:12.013Z,63.66
2022-08-07T05:22:27.679Z,63.12
2022-08-07T05:28:16.662Z,63.41
2022-08-07T05:33:04.183Z,62.15
2022-08-07T05:38:11.796Z,61.69
2022-08-07T05:43:18.594Z,61.75
2022-08-07T05:48:26.424Z,61.97
2022-08-07T05:54:13.954Z,61.79
2022-08-07T05:59:00.877Z,61.12
2022-08-07T06:04:06.817Z,59.90
2022-08-07T06:09:20.125Z,59.87
2022-08-07T06:14:28.655Z,59.80
2022-08-07T06:19:52.087Z,58.83
2022-08-07T06:25:03.974Z,58.44
2022-08-07T06:30:32.300Z,54.35
2022-08-07T06:35:45.543Z,52.81
2022-08-07T06:40:56.473Z,51.51
2022-08-07T06:46:03.445Z,51.18
2022-08-07T06:51:15.400Z,51.63
2022-08-07T06:56:48.538Z,50.65
2022-08-07T07:02:00.311Z,50.02
2022-08-07T07:07:10.507Z,48.50
2022-08-07T07:12:48.491Z,48.28
2022-08-07T07:18:00.120Z,46.90
2022-08-07T07:24:09.307Z,46.62
2022-08-07T07:28:48.737Z,45.45
2022-08-07T07:34:11.250Z,44.50
2022-08-07T07:39:22.219Z,44.35
2022-08-07T07:44:30.886Z,43.85
2022-08-07T07:50:32.772Z,43.40
2022-08-07T07:55:03.797Z,42.77
2022-08-07T08:00:11.292Z,41.72
2022-08-07T08:05:22.347Z,40.82
2022-08-07T08:10:35.543Z,40.60
2022-08-07T08:15:57.877Z,40.53
2022-08-07T08:21:04.760Z,41.83
2022-08-07T08:26:31.529Z,42.71
2022-08-07T08:32:04.720Z,41.04
2022-08-07T08:38:01.795Z,40.25
2022-08-07T08:42:44.778Z,38.00
2022-08-07T08:48:01.883Z,40.02
2022-08-07T08:53:22.938Z,39.41
2022-08-07T08:58:36.974Z,39.55
2022-08-07T09:03:52.916Z,39.92
2022-08-07T09:09:29.838Z,38.81
2022-08-07T09:14:42.108Z,37.64
2022-08-07T09:20:03.038Z,36.94
2022-08-07T09:25:30.933Z,36.83
2022-08-07T09:30:54.682Z,36.86
2022-08-07T09:36:07.886Z,38.57
2022-08-07T09:41:24.495Z,40.07
2022-08-07T09:47:52.329Z,40.69
2022-08-07T09:52:34.387Z,39.88
2022-08-07T09:58:17.868Z,39.30
2022-08-07T10:04:04.883Z,39.92
2022-08-07T10:09:23.825Z,40.77
2022-08-07T10:15:02.251Z,41.36
2022-08-07T10:20:22.155Z,40.06
2022-08-07T10:25:51.921Z,39.16
2022-08-07T10:31:12.169Z,39.00
2022-08-07T10:36:29.740Z,39.93
2022-08-07T10:41:51.230Z,44.07
2022-08-07T10:47:11.984Z,43.90
2022-08-07T10:52:33.541Z,45.73
2022-08-07T10:57:51.554Z,40.52
2022-08-07T11:03:11.045Z,40.88
2022-08-07T11:08:30.257Z,40.28
2022-08-07T11:14:41.966Z,41.29
2022-08-07T11:19:11.240Z,42.27
2022-08-07T11:24:23.452Z,41.36
2022-08-07T11:29:41.927Z,39.39
2022-08-07T11:34:52.346Z,38.99
2022-08-07T11:40:09.199Z,39.26
2022-08-07T11:45:35.670Z,39.59
2022-08-07T11:50:57.235Z,39.97
2022-08-07T11:56:27.306Z,40.56
2022-08-07T12:01:59.946Z,40.90
2022-08-07T12:07:20.399Z,41.36
2022-08-07T12:12:38.996Z,40.40
2022-08-07T12:17:58.644Z,40.71
2022-08-07T12:23:37.126Z,40.83
2022-08-07T12:28:53.963Z,40.52
2022-08-07T12:34:04.261Z,40.63
2022-08-07T12:39:42.525Z,40.24
2022-08-07T12:44:45.110Z,38.74
2022-08-07T12:50:05.093Z,38.32
2022-08-07T12:55:40.646Z,37.05
2022-08-07T13:00:51.810Z,37.32
2022-08-07T13:06:21.424Z,38.16
2022-08-07T13:12:03.126Z,38.83
2022-08-07T13:17:11.635Z,39.22
2022-08-07T13:22:31.848Z,40.85
2022-08-07T13:28:11.007Z,41.94
2022-08-07T13:34:29.875Z,42.99
2022-08-07T13:38:43.576Z,43.03
2022-08-07T13:43:52.517Z,42.46
2022-08-07T13:49:08.689Z,41.58
2022-08-07T13:54:33.980Z,40.97
2022-08-07T13:59:39.765Z,40.78
2022-08-07T14:04:54.641Z,40.24
2022-08-07T14:10:17.483Z,40.03
2022-08-07T14:15:31.903Z,39.57
2022-08-07T14:20:49.262Z,39.60
2022-08-07T14:26:30.006Z,39.31
2022-08-07T14:31:43.440Z,37.76
2022-08-07T14:37:03.446Z,37.50
2022-08-07T14:42:19.758Z,38.07
2022-08-07T14:47:33.785Z,38.79
2022-08-07T14:52:39.965Z,39.71
2022-08-07T14:57:58.187Z,40.76
2022-08-07T15:03:18.850Z,41.36
2022-08-07T15:13:56.199Z,41.61
2022-08-07T15:19:05.512Z,41.40
2022-08-07T15:25:14.760Z,40.24
2022-08-07T15:35:16.822Z,41.63
2022-08-07T15:40:33.981Z,42.55
2022-08-07T15:45:56.427Z,42.97
2022-08-07T15:56:37.285Z,45.72
2022-08-07T16:02:01.912Z,45.41
2022-08-07T16:08:28.921Z,45.18
2022-08-07T16:13:01.088Z,43.83
2022-08-07T16:18:49.869Z,43.32
2022-08-07T16:24:03.976Z,44.01
2022-08-07T16:30:17.708Z,44.33
2022-08-07T16:34:51.096Z,44.37
2022-08-07T16:40:36.710Z,45.94
2022-08-07T16:52:49.213Z,46.43
2022-08-07T16:58:01.812Z,50.23
2022-08-07T17:03:10.519Z,49.22
2022-08-07T17:09:09.722Z,49.11
2022-08-07T17:14:18.307Z,50.90
2022-08-07T17:20:02.033Z,49.67
2022-08-07T17:25:10.178Z,52.45
2022-08-07T17:30:20.522Z,51.96
2022-08-07T17:35:50.782Z,53.10
2022-08-07T17:42:02.739Z,54.11
2022-08-07T17:46:41.570Z,57.66
2022-08-07T17:52:01.224Z,59.44
2022-08-07T17:57:18.724Z,58.92
2022-08-07T18:02:31.978Z,63.60
2022-08-07T18:07:46.064Z,71.77
2022-08-07T18:13:10.985Z,75.19
2022-08-07T18:18:46.259Z,76.45
2022-08-07T18:24:00.696Z,75.17
2022-08-07T18:30:06.320Z,78.55
2022-08-07T18:35:10.476Z,78.27
2022-08-07T18:40:42.246Z,79.81
2022-08-07T18:46:24.416Z,83.01
2022-08-07T18:52:43.946Z,84.54
2022-08-07T18:57:31.031Z,83.48
2022-08-07T19:02:43.031Z,80.52
2022-08-07T19:07:59.256Z,80.29
2022-08-07T19:13:21.481Z,82.42
2022-08-07T19:18:45.133Z,80.62
2022-08-07T19:23:58.810Z,79.77
2022-08-07T19:31:06.200Z,67.93
2022-08-07T19:34:36.337Z,66.41
2022-08-07T19:39:57.895Z,66.86
2022-08-07T19:45:10.122Z,65.72
2022-08-07T19:50:44.189Z,67.56
2022-08-07T19:55:57.536Z,68.24
2022-08-07T20:01:03.148Z,78.39
2022-08-07T20:06:30.507Z,81.82
2022-08-07T20:12:21.909Z,66.76
2022-08-07T20:17:09.032Z,67.52
2022-08-07T20:22:18.084Z,68.18
2022-08-07T20:27:47.450Z,67.74
2022-08-07T20:32:56.417Z,67.92
2022-08-07T20:38:03.077Z,68.30
2022-08-07T20:43:19.705Z,67.88
2022-08-07T20:48:30.267Z,68.99
2022-08-07T20:54:02.908Z,74.76
2022-08-07T20:59:06.166Z,84.90
2022-08-07T21:04:33.974Z,75.13
2022-08-07T21:09:51.579Z,70.73
2022-08-07T21:15:08.786Z,73.22
2022-08-07T21:20:26.677Z,70.02
2022-08-07T21:25:56.338Z,70.56
2022-08-07T21:31:05.267Z,69.98
2022-08-07T21:36:31.189Z,78.07
2022-08-07T21:41:52.074Z,85.86
2022-08-07T21:47:17.259Z,83.75
2022-08-07T21:52:33.947Z,70.86
2022-08-07T21:57:52.158Z,70.45
2022-08-07T22:03:06.293Z,71.45
2022-08-07T22:08:12.520Z,71.79
2022-08-07T22:13:24.436Z,79.10
2022-08-07T22:18:56.357Z,82.49
2022-08-07T22:24:10.471Z,70.71
2022-08-07T22:29:38.092Z,70.53
2022-08-07T22:34:54.016Z,71.07
2022-08-07T22:40:04.961Z,73.30
2022-08-07T22:46:04.496Z,71.12
2022-08-07T22:51:07.566Z,69.71
2022-08-07T22:56:13.693Z,71.10
2022-08-07T23:01:49.614Z,71.20
2022-08-07T23:07:39.878Z,71.15
2022-08-07T23:12:53.953Z,72.80
2022-08-07T23:18:11.000Z,81.21
2022-08-07T23:24:06.821Z,85.20
2022-08-07T23:29:43.937Z,73.67
2022-08-07T23:35:11.956Z,70.79
2022-08-07T23:40:34.468Z,71.33
2022-08-07T23:46:03.795Z,72.24
2022-08-07T23:52:59.866Z,70.46
2022-08-07T23:56:53.667Z,70.01
